sensor_id;sensor_type;location;lat;lon;timestamp;P1;durP1;ratioP1;P2;durP2;ratioP2
64387;SDS011;50709;52.648;4.764;2023-10-08T00:01:07;11.35;;;6.43;;
64387;SDS011;50709;52.648;4.764;2023-10-08T00:03:36;13.40;;;6.10;;
64387;SDS011;50709;52.648;4.764;2023-10-08T00:06:03;14.40;;;6.75;;
64387;SDS011;50709;52.648;4.764;2023-10-08T00:08:38;12.57;;;6.10;;
64387;SDS011;50709;52.648;4.764;2023-10-08T00:11:04;17.95;;;6.35;;
64387;SDS011;50709;52.648;4.764;2023-10-08T00:13:50;14.40;;;6.03;;
64387;SDS011;50709;52.648;4.764;2023-10-08T00:16:21;11.07;;;6.00;;
64387;SDS011;50709;52.648;4.764;2023-10-08T00:18:47;14.65;;;6.63;;
64387;SDS011;50709;52.648;4.764;2023-10-08T00:21:20;13.20;;;6.78;;
64387;SDS011;50709;52.648;4.764;2023-10-08T00:23:52;13.88;;;5.85;;
64387;SDS011;50709;52.648;4.764;2023-10-08T00:26:23;13.57;;;6.20;;
64387;SDS011;50709;52.648;4.764;2023-10-08T00:28:53;19.15;;;7.00;;
64387;SDS011;50709;52.648;4.764;2023-10-08T00:31:22;16.20;;;5.88;;
64387;SDS011;50709;52.648;4.764;2023-10-08T00:33:59;18.35;;;6.97;;
64387;SDS011;50709;52.648;4.764;2023-10-08T00:36:47;15.13;;;6.20;;
64387;SDS011;50709;52.648;4.764;2023-10-08T00:39:15;14.02;;;6.00;;
64387;SDS011;50709;52.648;4.764;2023-10-08T00:41:50;16.13;;;6.50;;
64387;SDS011;50709;52.648;4.764;2023-10-08T00:44:24;15.35;;;6.38;;
64387;SDS011;50709;52.648;4.764;2023-10-08T00:46:54;13.48;;;6.25;;
64387;SDS011;50709;52.648;4.764;2023-10-08T00:49:25;14.93;;;6.68;;
64387;SDS011;50709;52.648;4.764;2023-10-08T00:52:01;11.98;;;6.38;;
64387;SDS011;50709;52.648;4.764;2023-10-08T00:54:34;16.08;;;6.82;;
64387;SDS011;50709;52.648;4.764;2023-10-08T00:57:28;15.27;;;6.07;;
64387;SDS011;50709;52.648;4.764;2023-10-08T00:59:55;17.08;;;6.35;;
64387;SDS011;50709;52.648;4.764;2023-10-08T01:02:29;18.70;;;7.00;;
64387;SDS011;50709;52.648;4.764;2023-10-08T01:05:10;13.60;;;6.70;;
64387;SDS011;50709;52.648;4.764;2023-10-08T01:07:38;17.52;;;6.70;;
64387;SDS011;50709;52.648;4.764;2023-10-08T01:10:10;14.73;;;6.77;;
64387;SDS011;50709;52.648;4.764;2023-10-08T01:12:38;17.45;;;6.35;;
64387;SDS011;50709;52.648;4.764;2023-10-08T01:15:24;16.77;;;6.88;;
64387;SDS011;50709;52.648;4.764;2023-10-08T01:17:55;16.27;;;6.47;;
64387;SDS011;50709;52.648;4.764;2023-10-08T01:20:29;21.75;;;6.85;;
64387;SDS011;50709;52.648;4.764;2023-10-08T01:23:09;20.02;;;6.70;;
64387;SDS011;50709;52.648;4.764;2023-10-08T01:25:39;16.85;;;6.60;;
64387;SDS011;50709;52.648;4.764;2023-10-08T01:28:07;14.38;;;6.88;;
64387;SDS011;50709;52.648;4.764;2023-10-08T01:31:01;16.35;;;5.80;;
64387;SDS011;50709;52.648;4.764;2023-10-08T01:33:35;13.18;;;5.07;;
64387;SDS011;50709;52.648;4.764;2023-10-08T01:36:08;16.00;;;4.75;;
64387;SDS011;50709;52.648;4.764;2023-10-08T01:38:38;10.45;;;4.85;;
64387;SDS011;50709;52.648;4.764;2023-10-08T01:41:24;11.90;;;4.00;;
64387;SDS011;50709;52.648;4.764;2023-10-08T01:43:57;6.07;;;3.43;;
64387;SDS011;50709;52.648;4.764;2023-10-08T01:46:24;8.35;;;3.85;;
64387;SDS011;50709;52.648;4.764;2023-10-08T01:48:52;9.18;;;3.63;;
64387;SDS011;50709;52.648;4.764;2023-10-08T01:51:29;9.55;;;3.63;;
64387;SDS011;50709;52.648;4.764;2023-10-08T01:54:09;7.47;;;3.38;;
64387;SDS011;50709;52.648;4.764;2023-10-08T01:56:55;9.73;;;3.20;;
64387;SDS011;50709;52.648;4.764;2023-10-08T01:59:24;9.30;;;3.50;;
64387;SDS011;50709;52.648;4.764;2023-10-08T02:01:50;7.63;;;3.20;;
64387;SDS011;50709;52.648;4.764;2023-10-08T02:04:20;10.00;;;3.13;;
64387;SDS011;50709;52.648;4.764;2023-10-08T02:06:46;5.10;;;2.58;;
64387;SDS011;50709;52.648;4.764;2023-10-08T02:09:12;5.85;;;2.60;;
64387;SDS011;50709;52.648;4.764;2023-10-08T02:11:42;7.43;;;2.55;;
64387;SDS011;50709;52.648;4.764;2023-10-08T02:14:08;5.20;;;2.33;;
64387;SDS011;50709;52.648;4.764;2023-10-08T02:16:33;3.92;;;2.17;;
64387;SDS011;50709;52.648;4.764;2023-10-08T02:19:00;3.75;;;2.30;;
64387;SDS011;50709;52.648;4.764;2023-10-08T02:21:28;5.00;;;2.40;;
64387;SDS011;50709;52.648;4.764;2023-10-08T02:23:54;6.80;;;2.33;;
64387;SDS011;50709;52.648;4.764;2023-10-08T02:26:21;5.00;;;2.40;;
64387;SDS011;50709;52.648;4.764;2023-10-08T02:28:48;3.90;;;2.08;;
64387;SDS011;50709;52.648;4.764;2023-10-08T02:31:15;5.65;;;2.40;;
64387;SDS011;50709;52.648;4.764;2023-10-08T02:33:43;5.10;;;2.42;;
64387;SDS011;50709;52.648;4.764;2023-10-08T02:36:09;4.95;;;2.35;;
64387;SDS011;50709;52.648;4.764;2023-10-08T02:38:35;3.22;;;2.10;;
64387;SDS011;50709;52.648;4.764;2023-10-08T02:41:03;4.82;;;2.53;;
64387;SDS011;50709;52.648;4.764;2023-10-08T02:43:31;4.65;;;2.35;;
64387;SDS011;50709;52.648;4.764;2023-10-08T02:46:00;4.63;;;1.85;;
64387;SDS011;50709;52.648;4.764;2023-10-08T02:48:27;3.88;;;1.95;;
64387;SDS011;50709;52.648;4.764;2023-10-08T02:50:52;3.60;;;1.65;;
64387;SDS011;50709;52.648;4.764;2023-10-08T02:53:19;4.10;;;1.95;;
64387;SDS011;50709;52.648;4.764;2023-10-08T02:55:48;3.95;;;2.10;;
64387;SDS011;50709;52.648;4.764;2023-10-08T02:58:15;3.88;;;2.05;;
64387;SDS011;50709;52.648;4.764;2023-10-08T03:00:44;3.55;;;1.95;;
64387;SDS011;50709;52.648;4.764;2023-10-08T03:03:12;4.35;;;2.20;;
64387;SDS011;50709;52.648;4.764;2023-10-08T03:05:44;2.75;;;1.75;;
64387;SDS011;50709;52.648;4.764;2023-10-08T03:08:11;3.95;;;1.77;;
64387;SDS011;50709;52.648;4.764;2023-10-08T03:10:47;4.93;;;1.70;;
64387;SDS011;50709;52.648;4.764;2023-10-08T03:13:27;2.40;;;1.55;;
64387;SDS011;50709;52.648;4.764;2023-10-08T03:15:53;2.97;;;1.80;;
64387;SDS011;50709;52.648;4.764;2023-10-08T03:18:28;3.97;;;1.90;;
64387;SDS011;50709;52.648;4.764;2023-10-08T03:21:01;4.28;;;2.10;;
64387;SDS011;50709;52.648;4.764;2023-10-08T03:23:31;2.50;;;1.52;;
64387;SDS011;50709;52.648;4.764;2023-10-08T03:26:02;3.83;;;1.80;;
64387;SDS011;50709;52.648;4.764;2023-10-08T03:28:55;2.10;;;1.45;;
64387;SDS011;50709;52.648;4.764;2023-10-08T03:31:24;9.57;;;2.03;;
64387;SDS011;50709;52.648;4.764;2023-10-08T03:34:08;3.20;;;1.58;;
64387;SDS011;50709;52.648;4.764;2023-10-08T03:36:53;1.95;;;1.40;;
64387;SDS011;50709;52.648;4.764;2023-10-08T03:39:31;2.45;;;1.55;;
64387;SDS011;50709;52.648;4.764;2023-10-08T03:42:22;2.47;;;1.40;;
64387;SDS011;50709;52.648;4.764;2023-10-08T03:44:49;2.22;;;1.40;;
64387;SDS011;50709;52.648;4.764;2023-10-08T03:47:17;3.13;;;1.40;;
64387;SDS011;50709;52.648;4.764;2023-10-08T03:50:05;2.03;;;1.40;;
64387;SDS011;50709;52.648;4.764;2023-10-08T03:52:35;3.13;;;1.77;;
64387;SDS011;50709;52.648;4.764;2023-10-08T03:55:06;2.10;;;1.20;;
64387;SDS011;50709;52.648;4.764;2023-10-08T03:57:44;2.10;;;1.27;;
64387;SDS011;50709;52.648;4.764;2023-10-08T04:00:49;1.77;;;1.00;;
64387;SDS011;50709;52.648;4.764;2023-10-08T04:03:36;2.63;;;1.05;;
64387;SDS011;50709;52.648;4.764;2023-10-08T04:06:27;1.45;;;0.90;;
64387;SDS011;50709;52.648;4.764;2023-10-08T04:09:17;2.33;;;1.10;;
64387;SDS011;50709;52.648;4.764;2023-10-08T04:11:49;2.50;;;1.02;;
64387;SDS011;50709;52.648;4.764;2023-10-08T04:14:21;1.63;;;0.90;;
64387;SDS011;50709;52.648;4.764;2023-10-08T04:16:48;1.73;;;1.00;;
64387;SDS011;50709;52.648;4.764;2023-10-08T04:19:18;0.95;;;0.88;;
64387;SDS011;50709;52.648;4.764;2023-10-08T04:21:46;2.17;;;1.20;;
64387;SDS011;50709;52.648;4.764;2023-10-08T04:24:27;1.73;;;1.08;;
64387;SDS011;50709;52.648;4.764;2023-10-08T04:26:56;1.42;;;1.05;;
64387;SDS011;50709;52.648;4.764;2023-10-08T04:29:24;1.85;;;1.10;;
64387;SDS011;50709;52.648;4.764;2023-10-08T04:31:51;1.38;;;1.15;;
64387;SDS011;50709;52.648;4.764;2023-10-08T04:34:34;2.08;;;1.15;;
64387;SDS011;50709;52.648;4.764;2023-10-08T04:37:00;1.70;;;1.00;;
64387;SDS011;50709;52.648;4.764;2023-10-08T04:39:36;2.50;;;1.30;;
64387;SDS011;50709;52.648;4.764;2023-10-08T04:42:05;2.92;;;1.10;;
64387;SDS011;50709;52.648;4.764;2023-10-08T04:44:37;2.03;;;0.98;;
64387;SDS011;50709;52.648;4.764;2023-10-08T04:47:11;1.63;;;1.10;;
64387;SDS011;50709;52.648;4.764;2023-10-08T04:49:56;1.08;;;0.80;;
64387;SDS011;50709;52.648;4.764;2023-10-08T04:52:43;2.67;;;1.13;;
64387;SDS011;50709;52.648;4.764;2023-10-08T04:55:23;2.70;;;0.85;;
64387;SDS011;50709;52.648;4.764;2023-10-08T04:58:13;1.60;;;0.98;;
64387;SDS011;50709;52.648;4.764;2023-10-08T05:00:46;1.17;;;0.75;;
64387;SDS011;50709;52.648;4.764;2023-10-08T05:03:24;1.77;;;1.05;;
64387;SDS011;50709;52.648;4.764;2023-10-08T05:06:10;1.17;;;1.08;;
64387;SDS011;50709;52.648;4.764;2023-10-08T05:08:46;1.27;;;0.95;;
64387;SDS011;50709;52.648;4.764;2023-10-08T05:11:24;1.83;;;1.33;;
64387;SDS011;50709;52.648;4.764;2023-10-08T05:14:01;2.58;;;1.05;;
64387;SDS011;50709;52.648;4.764;2023-10-08T05:16:41;3.00;;;1.33;;
64387;SDS011;50709;52.648;4.764;2023-10-08T05:19:25;3.20;;;1.13;;
64387;SDS011;50709;52.648;4.764;2023-10-08T05:22:13;1.98;;;1.00;;
64387;SDS011;50709;52.648;4.764;2023-10-08T05:25:02;1.58;;;1.00;;
64387;SDS011;50709;52.648;4.764;2023-10-08T05:27:45;2.33;;;1.10;;
64387;SDS011;50709;52.648;4.764;2023-10-08T05:30:14;1.67;;;0.95;;
64387;SDS011;50709;52.648;4.764;2023-10-08T05:33:08;2.22;;;1.20;;
64387;SDS011;50709;52.648;4.764;2023-10-08T05:35:54;2.63;;;1.50;;
64387;SDS011;50709;52.648;4.764;2023-10-08T05:38:22;2.33;;;1.50;;
64387;SDS011;50709;52.648;4.764;2023-10-08T05:40:57;5.07;;;1.50;;
64387;SDS011;50709;52.648;4.764;2023-10-08T05:43:23;2.42;;;1.33;;
64387;SDS011;50709;52.648;4.764;2023-10-08T05:46:11;2.85;;;1.23;;
64387;SDS011;50709;52.648;4.764;2023-10-08T05:49:05;1.50;;;1.20;;
64387;SDS011;50709;52.648;4.764;2023-10-08T05:51:31;3.50;;;0.90;;
64387;SDS011;50709;52.648;4.764;2023-10-08T05:54:36;2.40;;;1.40;;
64387;SDS011;50709;52.648;4.764;2023-10-08T05:57:12;4.13;;;1.33;;
64387;SDS011;50709;52.648;4.764;2023-10-08T05:59:38;2.28;;;1.17;;
64387;SDS011;50709;52.648;4.764;2023-10-08T06:02:41;2.30;;;1.05;;
64387;SDS011;50709;52.648;4.764;2023-10-08T06:05:10;1.52;;;0.95;;
64387;SDS011;50709;52.648;4.764;2023-10-08T06:10:36;0.98;;;0.88;;
64387;SDS011;50709;52.648;4.764;2023-10-08T06:15:52;2.00;;;0.70;;
64387;SDS011;50709;52.648;4.764;2023-10-08T06:18:25;4.47;;;1.38;;
64387;SDS011;50709;52.648;4.764;2023-10-08T06:20:52;1.33;;;1.05;;
64387;SDS011;50709;52.648;4.764;2023-10-08T06:23:45;3.90;;;0.98;;
64387;SDS011;50709;52.648;4.764;2023-10-08T06:26:11;1.90;;;0.95;;
64387;SDS011;50709;52.648;4.764;2023-10-08T06:28:43;2.33;;;1.10;;
64387;SDS011;50709;52.648;4.764;2023-10-08T06:31:14;1.90;;;1.00;;
64387;SDS011;50709;52.648;4.764;2023-10-08T06:33:43;1.95;;;1.30;;
64387;SDS011;50709;52.648;4.764;2023-10-08T06:36:29;1.85;;;0.98;;
64387;SDS011;50709;52.648;4.764;2023-10-08T06:39:22;1.98;;;1.25;;
64387;SDS011;50709;52.648;4.764;2023-10-08T06:41:53;2.22;;;1.00;;
64387;SDS011;50709;52.648;4.764;2023-10-08T06:44:19;1.65;;;0.98;;
64387;SDS011;50709;52.648;4.764;2023-10-08T06:46:45;2.90;;;1.27;;
64387;SDS011;50709;52.648;4.764;2023-10-08T06:49:13;1.67;;;1.08;;
64387;SDS011;50709;52.648;4.764;2023-10-08T06:51:40;2.35;;;1.27;;
64387;SDS011;50709;52.648;4.764;2023-10-08T06:54:08;2.60;;;1.20;;
64387;SDS011;50709;52.648;4.764;2023-10-08T06:56:41;3.65;;;2.15;;
64387;SDS011;50709;52.648;4.764;2023-10-08T06:59:17;1.55;;;1.02;;
64387;SDS011;50709;52.648;4.764;2023-10-08T07:01:44;2.20;;;1.20;;
64387;SDS011;50709;52.648;4.764;2023-10-08T07:04:16;4.10;;;1.20;;
64387;SDS011;50709;52.648;4.764;2023-10-08T07:06:49;2.05;;;1.25;;
64387;SDS011;50709;52.648;4.764;2023-10-08T07:09:15;4.63;;;1.58;;
64387;SDS011;50709;52.648;4.764;2023-10-08T07:12:04;1.48;;;1.13;;
64387;SDS011;50709;52.648;4.764;2023-10-08T07:15:09;3.63;;;1.45;;
64387;SDS011;50709;52.648;4.764;2023-10-08T07:17:56;4.18;;;1.50;;
64387;SDS011;50709;52.648;4.764;2023-10-08T07:20:33;2.90;;;1.10;;
64387;SDS011;50709;52.648;4.764;2023-10-08T07:23:24;2.78;;;1.17;;
64387;SDS011;50709;52.648;4.764;2023-10-08T07:26:04;4.18;;;1.40;;
64387;SDS011;50709;52.648;4.764;2023-10-08T07:28:38;3.80;;;1.40;;
64387;SDS011;50709;52.648;4.764;2023-10-08T07:31:18;2.63;;;1.08;;
64387;SDS011;50709;52.648;4.764;2023-10-08T07:33:54;3.67;;;1.42;;
64387;SDS011;50709;52.648;4.764;2023-10-08T07:36:46;2.58;;;1.38;;
64387;SDS011;50709;52.648;4.764;2023-10-08T07:39:15;2.65;;;1.35;;
64387;SDS011;50709;52.648;4.764;2023-10-08T07:41:48;2.63;;;1.42;;
64387;SDS011;50709;52.648;4.764;2023-10-08T07:44:16;2.38;;;1.40;;
64387;SDS011;50709;52.648;4.764;2023-10-08T07:47:03;3.35;;;2.05;;
64387;SDS011;50709;52.648;4.764;2023-10-08T07:49:43;3.13;;;1.40;;
64387;SDS011;50709;52.648;4.764;2023-10-08T07:52:48;2.90;;;1.48;;
64387;SDS011;50709;52.648;4.764;2023-10-08T07:55:35;3.15;;;1.48;;
64387;SDS011;50709;52.648;4.764;2023-10-08T07:58:01;3.78;;;1.40;;
64387;SDS011;50709;52.648;4.764;2023-10-08T08:00:29;2.63;;;1.50;;
64387;SDS011;50709;52.648;4.764;2023-10-08T08:03:16;4.40;;;1.50;;
64387;SDS011;50709;52.648;4.764;2023-10-08T08:05:43;3.42;;;1.33;;
64387;SDS011;50709;52.648;4.764;2023-10-08T08:08:37;2.60;;;1.15;;
64387;SDS011;50709;52.648;4.764;2023-10-08T08:11:08;3.90;;;1.52;;
64387;SDS011;50709;52.648;4.764;2023-10-08T08:13:43;2.60;;;1.52;;
64387;SDS011;50709;52.648;4.764;2023-10-08T08:16:11;4.25;;;1.48;;
64387;SDS011;50709;52.648;4.764;2023-10-08T08:18:50;7.38;;;1.40;;
64387;SDS011;50709;52.648;4.764;2023-10-08T08:21:36;5.70;;;1.70;;
64387;SDS011;50709;52.648;4.764;2023-10-08T08:24:13;5.38;;;1.65;;
64387;SDS011;50709;52.648;4.764;2023-10-08T08:26:53;7.25;;;1.83;;
64387;SDS011;50709;52.648;4.764;2023-10-08T08:29:35;10.23;;;2.00;;
64387;SDS011;50709;52.648;4.764;2023-10-08T08:32:09;5.45;;;1.70;;
64387;SDS011;50709;52.648;4.764;2023-10-08T08:34:40;4.20;;;1.50;;
64387;SDS011;50709;52.648;4.764;2023-10-08T08:37:09;5.07;;;1.83;;
64387;SDS011;50709;52.648;4.764;2023-10-08T08:39:37;5.22;;;1.67;;
64387;SDS011;50709;52.648;4.764;2023-10-08T08:42:03;5.47;;;1.75;;
64387;SDS011;50709;52.648;4.764;2023-10-08T08:44:36;3.17;;;1.33;;
64387;SDS011;50709;52.648;4.764;2023-10-08T08:47:13;3.05;;;1.33;;
64387;SDS011;50709;52.648;4.764;2023-10-08T08:49:42;7.33;;;2.40;;
64387;SDS011;50709;52.648;4.764;2023-10-08T08:52:10;5.20;;;1.52;;
64387;SDS011;50709;52.648;4.764;2023-10-08T08:54:36;5.57;;;1.75;;
64387;SDS011;50709;52.648;4.764;2023-10-08T08:57:03;5.32;;;1.58;;
64387;SDS011;50709;52.648;4.764;2023-10-08T08:59:38;5.05;;;1.58;;
64387;SDS011;50709;52.648;4.764;2023-10-08T09:02:13;3.97;;;1.25;;
64387;SDS011;50709;52.648;4.764;2023-10-08T09:04:41;5.63;;;1.92;;
64387;SDS011;50709;52.648;4.764;2023-10-08T09:07:07;7.00;;;2.22;;
64387;SDS011;50709;52.648;4.764;2023-10-08T09:09:33;3.67;;;1.40;;
64387;SDS011;50709;52.648;4.764;2023-10-08T09:12:10;4.18;;;1.60;;
64387;SDS011;50709;52.648;4.764;2023-10-08T09:14:37;6.13;;;1.77;;
64387;SDS011;50709;52.648;4.764;2023-10-08T09:17:06;6.47;;;2.22;;
64387;SDS011;50709;52.648;4.764;2023-10-08T09:19:38;4.53;;;1.77;;
64387;SDS011;50709;52.648;4.764;2023-10-08T09:22:05;5.20;;;1.80;;
64387;SDS011;50709;52.648;4.764;2023-10-08T09:24:36;5.55;;;1.65;;
64387;SDS011;50709;52.648;4.764;2023-10-08T09:27:03;2.90;;;1.63;;
64387;SDS011;50709;52.648;4.764;2023-10-08T09:29:36;4.85;;;1.70;;
64387;SDS011;50709;52.648;4.764;2023-10-08T09:32:04;4.32;;;1.92;;
64387;SDS011;50709;52.648;4.764;2023-10-08T09:34:53;5.28;;;1.92;;
64387;SDS011;50709;52.648;4.764;2023-10-08T09:37:20;5.30;;;1.70;;
64387;SDS011;50709;52.648;4.764;2023-10-08T09:39:47;8.25;;;2.13;;
64387;SDS011;50709;52.648;4.764;2023-10-08T09:42:16;5.97;;;1.90;;
64387;SDS011;50709;52.648;4.764;2023-10-08T09:44:44;6.45;;;1.80;;
64387;SDS011;50709;52.648;4.764;2023-10-08T09:47:09;5.90;;;2.20;;
64387;SDS011;50709;52.648;4.764;2023-10-08T09:49:41;5.47;;;2.60;;
64387;SDS011;50709;52.648;4.764;2023-10-08T09:52:16;4.85;;;2.17;;
64387;SDS011;50709;52.648;4.764;2023-10-08T09:54:49;5.00;;;2.30;;
64387;SDS011;50709;52.648;4.764;2023-10-08T09:57:19;6.47;;;2.65;;
64387;SDS011;50709;52.648;4.764;2023-10-08T09:59:46;4.85;;;2.13;;
64387;SDS011;50709;52.648;4.764;2023-10-08T10:02:14;8.82;;;2.63;;
64387;SDS011;50709;52.648;4.764;2023-10-08T10:04:43;4.90;;;2.22;;
64387;SDS011;50709;52.648;4.764;2023-10-08T10:07:10;3.70;;;2.20;;
64387;SDS011;50709;52.648;4.764;2023-10-08T10:09:39;8.02;;;2.30;;
64387;SDS011;50709;52.648;4.764;2023-10-08T10:12:36;7.63;;;2.30;;
64387;SDS011;50709;52.648;4.764;2023-10-08T10:15:21;4.03;;;1.73;;
64387;SDS011;50709;52.648;4.764;2023-10-08T10:18:08;4.25;;;1.80;;
64387;SDS011;50709;52.648;4.764;2023-10-08T10:21:00;4.60;;;1.90;;
64387;SDS011;50709;52.648;4.764;2023-10-08T10:23:52;6.70;;;2.55;;
64387;SDS011;50709;52.648;4.764;2023-10-08T10:26:40;7.68;;;2.63;;
64387;SDS011;50709;52.648;4.764;2023-10-08T10:29:27;7.47;;;2.35;;
64387;SDS011;50709;52.648;4.764;2023-10-08T10:32:01;6.93;;;2.20;;
64387;SDS011;50709;52.648;4.764;2023-10-08T10:34:30;6.93;;;2.30;;
64387;SDS011;50709;52.648;4.764;2023-10-08T10:36:59;5.68;;;1.90;;
64387;SDS011;50709;52.648;4.764;2023-10-08T10:39:54;9.25;;;2.25;;
64387;SDS011;50709;52.648;4.764;2023-10-08T10:42:55;5.63;;;2.10;;
64387;SDS011;50709;52.648;4.764;2023-10-08T10:45:45;6.03;;;2.15;;
64387;SDS011;50709;52.648;4.764;2023-10-08T10:48:31;5.13;;;1.90;;
64387;SDS011;50709;52.648;4.764;2023-10-08T10:51:22;6.40;;;1.98;;
64387;SDS011;50709;52.648;4.764;2023-10-08T10:54:12;6.07;;;2.20;;
64387;SDS011;50709;52.648;4.764;2023-10-08T10:56:47;6.93;;;2.05;;
64387;SDS011;50709;52.648;4.764;2023-10-08T10:59:15;7.88;;;1.90;;
64387;SDS011;50709;52.648;4.764;2023-10-08T11:02:36;4.97;;;2.22;;
64387;SDS011;50709;52.648;4.764;2023-10-08T11:05:14;4.13;;;1.95;;
64387;SDS011;50709;52.648;4.764;2023-10-08T11:08:01;5.47;;;2.42;;
64387;SDS011;50709;52.648;4.764;2023-10-08T11:10:41;4.82;;;1.75;;
64387;SDS011;50709;52.648;4.764;2023-10-08T11:13:45;4.22;;;1.88;;
64387;SDS011;50709;52.648;4.764;2023-10-08T11:16:22;6.50;;;1.95;;
64387;SDS011;50709;52.648;4.764;2023-10-08T11:18:56;4.55;;;2.10;;
64387;SDS011;50709;52.648;4.764;2023-10-08T11:21:56;6.05;;;2.40;;
64387;SDS011;50709;52.648;4.764;2023-10-08T11:24:30;5.55;;;2.30;;
64387;SDS011;50709;52.648;4.764;2023-10-08T11:27:33;5.88;;;1.90;;
64387;SDS011;50709;52.648;4.764;2023-10-08T11:30:06;5.53;;;2.55;;
64387;SDS011;50709;52.648;4.764;2023-10-08T11:32:36;6.07;;;2.10;;
64387;SDS011;50709;52.648;4.764;2023-10-08T11:35:03;4.13;;;2.20;;
64387;SDS011;50709;52.648;4.764;2023-10-08T11:37:44;4.72;;;1.90;;
64387;SDS011;50709;52.648;4.764;2023-10-08T11:40:21;4.47;;;1.90;;
64387;SDS011;50709;52.648;4.764;2023-10-08T11:42:57;6.63;;;2.25;;
64387;SDS011;50709;52.648;4.764;2023-10-08T11:45:24;5.28;;;1.90;;
64387;SDS011;50709;52.648;4.764;2023-10-08T11:48:03;3.53;;;1.90;;
64387;SDS011;50709;52.648;4.764;2023-10-08T11:50:47;7.10;;;2.15;;
64387;SDS011;50709;52.648;4.764;2023-10-08T11:53:15;6.57;;;2.10;;
64387;SDS011;50709;52.648;4.764;2023-10-08T11:55:41;5.55;;;2.20;;
64387;SDS011;50709;52.648;4.764;2023-10-08T11:58:08;6.28;;;2.22;;
64387;SDS011;50709;52.648;4.764;2023-10-08T12:00:37;4.28;;;1.83;;
64387;SDS011;50709;52.648;4.764;2023-10-08T12:03:13;6.45;;;2.00;;
64387;SDS011;50709;52.648;4.764;2023-10-08T12:05:43;5.28;;;1.90;;
64387;SDS011;50709;52.648;4.764;2023-10-08T12:08:15;5.28;;;2.00;;
64387;SDS011;50709;52.648;4.764;2023-10-08T12:10:44;4.28;;;2.10;;
64387;SDS011;50709;52.648;4.764;2023-10-08T12:13:14;4.85;;;2.05;;
64387;SDS011;50709;52.648;4.764;2023-10-08T12:15:43;5.53;;;1.95;;
64387;SDS011;50709;52.648;4.764;2023-10-08T12:18:09;4.57;;;2.97;;
64387;SDS011;50709;52.648;4.764;2023-10-08T12:20:49;5.13;;;1.95;;
64387;SDS011;50709;52.648;4.764;2023-10-08T12:23:16;4.13;;;1.73;;
64387;SDS011;50709;52.648;4.764;2023-10-08T12:25:54;6.43;;;2.13;;
64387;SDS011;50709;52.648;4.764;2023-10-08T12:28:25;5.57;;;2.60;;
64387;SDS011;50709;52.648;4.764;2023-10-08T12:31:11;5.07;;;1.70;;
64387;SDS011;50709;52.648;4.764;2023-10-08T12:33:38;4.03;;;2.03;;
64387;SDS011;50709;52.648;4.764;2023-10-08T12:36:05;2.72;;;1.73;;
64387;SDS011;50709;52.648;4.764;2023-10-08T12:38:36;7.07;;;2.10;;
64387;SDS011;50709;52.648;4.764;2023-10-08T12:41:02;6.07;;;2.03;;
64387;SDS011;50709;52.648;4.764;2023-10-08T12:43:37;5.72;;;2.13;;
64387;SDS011;50709;52.648;4.764;2023-10-08T12:46:17;4.30;;;1.83;;
64387;SDS011;50709;52.648;4.764;2023-10-08T12:48:46;5.38;;;2.25;;
64387;SDS011;50709;52.648;4.764;2023-10-08T12:51:17;4.20;;;2.00;;
64387;SDS011;50709;52.648;4.764;2023-10-08T12:53:43;5.05;;;1.98;;
64387;SDS011;50709;52.648;4.764;2023-10-08T12:56:16;3.60;;;1.90;;
64387;SDS011;50709;52.648;4.764;2023-10-08T12:58:42;3.05;;;1.58;;
64387;SDS011;50709;52.648;4.764;2023-10-08T13:01:13;4.32;;;2.50;;
64387;SDS011;50709;52.648;4.764;2023-10-08T13:03:42;4.75;;;2.30;;
64387;SDS011;50709;52.648;4.764;2023-10-08T13:06:10;5.05;;;2.00;;
64387;SDS011;50709;52.648;4.764;2023-10-08T13:08:52;5.53;;;3.40;;
64387;SDS011;50709;52.648;4.764;2023-10-08T13:11:18;3.25;;;1.90;;
64387;SDS011;50709;52.648;4.764;2023-10-08T13:13:57;7.65;;;2.47;;
64387;SDS011;50709;52.648;4.764;2023-10-08T13:16:23;4.30;;;2.20;;
64387;SDS011;50709;52.648;4.764;2023-10-08T13:18:50;7.13;;;1.92;;
64387;SDS011;50709;52.648;4.764;2023-10-08T13:21:17;3.25;;;1.88;;
64387;SDS011;50709;52.648;4.764;2023-10-08T13:23:47;4.57;;;1.85;;
64387;SDS011;50709;52.648;4.764;2023-10-08T13:26:14;4.15;;;1.80;;
64387;SDS011;50709;52.648;4.764;2023-10-08T13:28:42;5.35;;;2.13;;
64387;SDS011;50709;52.648;4.764;2023-10-08T13:31:09;4.13;;;2.03;;
64387;SDS011;50709;52.648;4.764;2023-10-08T13:33:39;4.30;;;2.03;;
64387;SDS011;50709;52.648;4.764;2023-10-08T13:36:07;6.82;;;2.20;;
64387;SDS011;50709;52.648;4.764;2023-10-08T13:38:33;5.22;;;2.05;;
64387;SDS011;50709;52.648;4.764;2023-10-08T13:41:00;5.60;;;2.22;;
64387;SDS011;50709;52.648;4.764;2023-10-08T13:43:34;3.45;;;2.05;;
64387;SDS011;50709;52.648;4.764;2023-10-08T13:46:00;3.80;;;2.05;;
64387;SDS011;50709;52.648;4.764;2023-10-08T13:48:31;3.50;;;1.77;;
64387;SDS011;50709;52.648;4.764;2023-10-08T13:50:59;3.90;;;2.00;;
64387;SDS011;50709;52.648;4.764;2023-10-08T13:53:26;4.70;;;1.95;;
64387;SDS011;50709;52.648;4.764;2023-10-08T13:55:56;5.65;;;2.60;;
64387;SDS011;50709;52.648;4.764;2023-10-08T13:58:24;5.70;;;2.35;;
64387;SDS011;50709;52.648;4.764;2023-10-08T14:00:49;3.35;;;1.80;;
64387;SDS011;50709;52.648;4.764;2023-10-08T14:03:17;3.75;;;1.90;;
64387;SDS011;50709;52.648;4.764;2023-10-08T14:05:46;6.47;;;2.10;;
64387;SDS011;50709;52.648;4.764;2023-10-08T14:08:15;3.97;;;1.98;;
64387;SDS011;50709;52.648;4.764;2023-10-08T14:10:43;3.60;;;1.98;;
64387;SDS011;50709;52.648;4.764;2023-10-08T14:13:09;5.93;;;1.88;;
64387;SDS011;50709;52.648;4.764;2023-10-08T14:15:34;4.10;;;1.85;;
64387;SDS011;50709;52.648;4.764;2023-10-08T14:20:33;5.35;;;2.08;;
64387;SDS011;50709;52.648;4.764;2023-10-08T14:22:59;5.55;;;1.70;;
64387;SDS011;50709;52.648;4.764;2023-10-08T14:25:29;4.95;;;2.20;;
64387;SDS011;50709;52.648;4.764;2023-10-08T14:27:58;3.50;;;2.55;;
64387;SDS011;50709;52.648;4.764;2023-10-08T14:30:32;5.10;;;2.20;;
64387;SDS011;50709;52.648;4.764;2023-10-08T14:33:00;3.75;;;2.28;;
64387;SDS011;50709;52.648;4.764;2023-10-08T14:35:28;5.68;;;2.50;;
64387;SDS011;50709;52.648;4.764;2023-10-08T14:38:12;7.80;;;3.78;;
64387;SDS011;50709;52.648;4.764;2023-10-08T14:40:56;4.22;;;2.00;;
64387;SDS011;50709;52.648;4.764;2023-10-08T14:43:40;11.55;;;5.35;;
64387;SDS011;50709;52.648;4.764;2023-10-08T14:46:06;7.95;;;4.53;;
64387;SDS011;50709;52.648;4.764;2023-10-08T14:48:34;10.52;;;5.57;;
64387;SDS011;50709;52.648;4.764;2023-10-08T14:51:00;6.10;;;2.80;;
64387;SDS011;50709;52.648;4.764;2023-10-08T14:53:28;6.13;;;3.45;;
64387;SDS011;50709;52.648;4.764;2023-10-08T14:55:56;9.02;;;4.43;;
64387;SDS011;50709;52.648;4.764;2023-10-08T14:58:22;3.03;;;2.10;;
64387;SDS011;50709;52.648;4.764;2023-10-08T15:00:48;8.63;;;3.00;;
64387;SDS011;50709;52.648;4.764;2023-10-08T15:03:14;4.93;;;2.40;;
64387;SDS011;50709;52.648;4.764;2023-10-08T15:05:39;6.45;;;2.20;;
64387;SDS011;50709;52.648;4.764;2023-10-08T15:08:05;4.82;;;2.30;;
64387;SDS011;50709;52.648;4.764;2023-10-08T15:10:34;4.30;;;2.47;;
64387;SDS011;50709;52.648;4.764;2023-10-08T15:13:00;2.88;;;2.03;;
64387;SDS011;50709;52.648;4.764;2023-10-08T15:15:26;5.03;;;2.30;;
64387;SDS011;50709;52.648;4.764;2023-10-08T15:17:59;7.72;;;2.30;;
64387;SDS011;50709;52.648;4.764;2023-10-08T15:20:31;4.68;;;2.50;;
64387;SDS011;50709;52.648;4.764;2023-10-08T15:22:58;3.42;;;1.83;;
64387;SDS011;50709;52.648;4.764;2023-10-08T15:25:25;4.65;;;2.00;;
64387;SDS011;50709;52.648;4.764;2023-10-08T15:27:50;3.90;;;1.92;;
64387;SDS011;50709;52.648;4.764;2023-10-08T15:30:17;6.30;;;2.20;;
64387;SDS011;50709;52.648;4.764;2023-10-08T15:32:47;4.32;;;2.10;;
64387;SDS011;50709;52.648;4.764;2023-10-08T15:35:14;5.25;;;2.42;;